Sutherlin, Oregon
Current Conditions -  °F | °C
As of 4:53 AM on Saturday 25 Oct 2014 (Local Time) from KRBG Reporting Station
Moderate Rain Moderate Rain  
Wind Chill: 54°   Ceiling: 4800
Heat Index: 54°   Visibility: 3mi
Dew Point: 51°   Wind: 3mph
Humidity: 90%   Direction: 120°ESE
Pressure: 29.59"   Gusts: NA
Location:  43.39°N, 123.31°W
Report Text: KRBG 251153Z AUTO 12003KT 3SM RA BR FEW005 BKN048 OVC070 12/11 A2959 RMK AO2 RAB1057 SLP018 P0008 60008 70023 T01220106 10128 20122 50010 $
Loading
Personal Weather Stations






























Interactive Weather Map
Tropical Storm Tracking
New forecast layout! Learn more

10-Day Weather Forecast

Advertisements
Track Severe Weather on mobile